createdAt,value
2018-04-06T00:01:16.305Z,85.87
2018-04-06T00:03:44.548Z,87.64
2018-04-06T00:06:12.796Z,89.23
2018-04-06T00:08:41.057Z,89.88
2018-04-06T00:11:09.313Z,90.91
2018-04-06T00:13:37.560Z,91.26
2018-04-06T00:16:05.822Z,90.96
2018-04-06T00:18:34.846Z,91.43
2018-04-06T00:21:03.105Z,89.45
2018-04-06T00:23:32.125Z,89.76
2018-04-06T00:26:00.370Z,88.93
2018-04-06T00:28:28.620Z,87.71
2018-04-06T00:30:56.872Z,89.08
2018-04-06T00:33:25.134Z,90.57
2018-04-06T00:35:54.150Z,91.55
2018-04-06T00:38:22.414Z,91.53
2018-04-06T00:40:51.220Z,90.97
2018-04-06T00:43:19.487Z,90.38
2018-04-06T00:45:48.488Z,90.22
2018-04-06T00:48:16.753Z,90.45
2018-04-06T00:50:45.760Z,90.60
2018-04-06T00:53:32.228Z,89.15
2018-04-06T00:56:00.485Z,89.55
2018-04-06T00:58:29.771Z,90.49
2018-04-06T01:00:58.165Z,91.32
2018-04-06T01:03:26.414Z,91.58
2018-04-06T01:05:54.656Z,92.14
2018-04-06T01:08:22.904Z,92.27
2018-04-06T01:10:51.143Z,91.65
2018-04-06T01:13:19.395Z,91.82
2018-04-06T01:15:47.659Z,91.43
2018-04-06T01:18:15.912Z,91.98
2018-04-06T01:20:44.144Z,92.95
2018-04-06T01:23:13.170Z,93.28
2018-04-06T01:25:41.417Z,93.32
2018-04-06T01:28:09.656Z,93.11
2018-04-06T01:30:37.910Z,93.51
2018-04-06T01:33:06.158Z,93.43
2018-04-06T01:35:34.404Z,93.73
2018-04-06T01:38:02.656Z,93.90
2018-04-06T01:40:30.916Z,94.09
2018-04-06T01:42:59.936Z,94.25
2018-04-06T01:45:28.196Z,94.33
2018-04-06T01:47:57.206Z,92.90
2018-04-06T01:50:25.462Z,92.96
2018-04-06T01:52:54.507Z,94.05
2018-04-06T01:55:23.489Z,94.14
2018-04-06T01:57:51.729Z,94.26
2018-04-06T02:00:19.979Z,93.86
2018-04-06T02:02:48.233Z,93.23
2018-04-06T02:05:16.491Z,93.31
2018-04-06T02:07:44.746Z,93.54
2018-04-06T02:10:13.000Z,93.69
2018-04-06T02:12:41.248Z,93.12
2018-04-06T02:15:09.512Z,91.40
2018-04-06T02:17:38.550Z,90.88
2018-04-06T02:20:06.781Z,91.83
2018-04-06T02:22:35.788Z,93.37
2018-04-06T02:25:04.808Z,93.74
2018-04-06T02:27:33.056Z,93.95
2018-04-06T02:30:02.900Z,94.00
2018-04-06T02:32:31.361Z,93.82
2018-04-06T02:35:00.380Z,94.06
2018-04-06T02:37:28.618Z,94.10
2018-04-06T02:39:56.870Z,92.82
2018-04-06T02:42:25.111Z,93.34
2018-04-06T02:44:53.355Z,92.98
2018-04-06T02:47:21.620Z,93.36
2018-04-06T02:49:49.879Z,93.13
2018-04-06T02:52:18.123Z,91.83
2018-04-06T02:54:47.162Z,92.49
2018-04-06T02:57:15.409Z,93.13
2018-04-06T02:59:43.656Z,93.14
2018-04-06T03:02:11.921Z,93.70
2018-04-06T03:04:40.177Z,93.96
2018-04-06T03:07:08.532Z,94.02
2018-04-06T03:09:36.780Z,94.41
2018-04-06T03:12:05.025Z,94.14
2018-04-06T03:14:33.271Z,94.20
2018-04-06T03:17:01.530Z,94.14
2018-04-06T03:19:30.545Z,94.21
2018-04-06T03:21:59.765Z,94.00
2018-04-06T03:24:28.028Z,92.88
2018-04-06T03:26:57.049Z,91.73
2018-04-06T03:29:25.311Z,92.97
2018-04-06T03:31:54.331Z,93.36
2018-04-06T03:34:22.580Z,93.67
2018-04-06T03:36:51.700Z,93.99
2018-04-06T03:39:19.953Z,94.00
2018-04-06T03:41:48.952Z,94.16
2018-04-06T03:44:17.973Z,94.49
2018-04-06T03:46:46.225Z,93.92
2018-04-06T03:49:15.252Z,93.27
2018-04-06T03:51:44.396Z,94.22
2018-04-06T03:54:12.664Z,93.43
2018-04-06T03:56:40.916Z,92.83
2018-04-06T03:59:09.174Z,92.89
2018-04-06T04:01:38.201Z,93.94
2018-04-06T04:04:06.449Z,94.29
2018-04-06T04:06:34.930Z,94.43
2018-04-06T04:09:03.945Z,94.58
2018-04-06T04:11:32.211Z,93.74
2018-04-06T04:14:01.228Z,93.48
2018-04-06T04:16:30.318Z,93.87
2018-04-06T04:18:58.568Z,93.92
2018-04-06T04:21:26.819Z,93.84
2018-04-06T04:23:55.076Z,93.70
2018-04-06T04:26:23.320Z,94.40
2018-04-06T04:28:52.348Z,94.40
2018-04-06T04:31:20.600Z,93.83
2018-04-06T04:33:49.620Z,94.03
2018-04-06T04:36:17.860Z,94.30
2018-04-06T04:38:46.101Z,94.50
2018-04-06T04:41:14.367Z,94.05
2018-04-06T04:43:42.601Z,94.16
2018-04-06T04:46:10.851Z,94.21
2018-04-06T04:48:39.104Z,94.74
2018-04-06T04:51:07.361Z,94.55
2018-04-06T04:53:36.415Z,94.49
2018-04-06T04:56:04.633Z,94.43
2018-04-06T04:58:33.640Z,94.48
2018-04-06T05:01:02.669Z,94.74
2018-04-06T05:03:30.924Z,94.75
2018-04-06T05:05:59.940Z,94.94
2018-04-06T05:08:28.186Z,94.63
2018-04-06T05:10:57.206Z,94.39
2018-04-06T05:13:25.462Z,93.00
2018-04-06T05:15:54.486Z,93.29
2018-04-06T05:18:22.729Z,92.61
2018-04-06T05:20:50.989Z,92.14
2018-04-06T05:23:19.237Z,91.84
2018-04-06T05:25:47.493Z,90.97
2018-04-06T05:28:16.516Z,90.17
2018-04-06T05:30:44.796Z,90.59
2018-04-06T05:33:13.045Z,89.39
2018-04-06T05:35:42.067Z,88.93
2018-04-06T05:38:10.308Z,88.87
2018-04-06T05:40:38.860Z,89.83
2018-04-06T05:43:07.113Z,88.80
2018-04-06T05:45:35.365Z,88.84
2018-04-06T05:48:04.418Z,86.80
2018-04-06T05:50:32.646Z,85.11
2018-04-06T05:53:00.916Z,79.16
2018-04-06T05:55:29.161Z,61.36
2018-04-06T05:57:57.425Z,45.39
2018-04-06T06:00:25.678Z,40.41
2018-04-06T06:02:53.947Z,37.62
2018-04-06T06:05:22.955Z,34.10
2018-04-06T06:07:51.979Z,34.55
2018-04-06T06:10:20.219Z,34.22
2018-04-06T06:12:48.736Z,34.27
2018-04-06T06:15:16.977Z,32.92
2018-04-06T06:17:45.281Z,31.35
2018-04-06T06:20:13.484Z,30.48
2018-04-06T06:22:41.960Z,32.07
2018-04-06T06:25:10.196Z,32.50
2018-04-06T06:27:38.452Z,30.88
2018-04-06T06:30:06.708Z,32.29
2018-04-06T06:32:35.799Z,29.71
2018-04-06T06:35:04.061Z,27.29
2018-04-06T06:37:33.080Z,29.06
2018-04-06T06:40:01.344Z,27.47
2018-04-06T06:42:29.614Z,26.05
2018-04-06T06:44:58.631Z,26.54
2018-04-06T06:47:26.876Z,26.01
2018-04-06T06:49:55.141Z,25.40
2018-04-06T06:52:23.388Z,26.68
2018-04-06T06:54:51.644Z,25.61
2018-04-06T06:57:19.892Z,25.19
2018-04-06T06:59:48.152Z,25.80
2018-04-06T07:02:16.405Z,27.30
2018-04-06T07:04:44.664Z,24.96
2018-04-06T07:07:13.676Z,21.79
2018-04-06T07:09:41.936Z,21.97
2018-04-06T07:12:10.956Z,24.28
2018-04-06T07:14:39.212Z,25.30
2018-04-06T07:17:08.233Z,23.31
2018-04-06T07:19:36.496Z,26.20
2018-04-06T07:22:04.753Z,24.23
2018-04-06T07:24:33.001Z,29.01
2018-04-06T07:27:01.275Z,29.47
2018-04-06T07:29:29.531Z,30.30
2018-04-06T07:31:57.788Z,26.86
2018-04-06T07:34:26.822Z,27.36
2018-04-06T07:36:56.132Z,26.47
2018-04-06T07:39:24.393Z,24.74
2018-04-06T07:41:52.664Z,26.87
2018-04-06T07:44:20.979Z,23.41
2018-04-06T07:46:49.175Z,25.57
2018-04-06T07:49:17.429Z,29.32
2018-04-06T07:51:45.690Z,30.81
2018-04-06T07:54:13.953Z,25.53
2018-04-06T07:56:44.225Z,27.64
2018-04-06T07:59:12.483Z,28.09
2018-04-06T08:01:40.773Z,28.04
2018-04-06T08:04:09.025Z,31.14
2018-04-06T08:06:38.044Z,26.63
2018-04-06T08:09:07.104Z,24.34
2018-04-06T08:11:36.136Z,23.44
2018-04-06T08:14:04.381Z,24.02
2018-04-06T08:16:32.652Z,22.42
2018-04-06T08:19:02.617Z,20.48
2018-04-06T08:21:30.881Z,22.33
2018-04-06T08:23:59.894Z,24.78
2018-04-06T08:26:28.212Z,22.20
2018-04-06T08:28:57.177Z,28.19
2018-04-06T08:31:25.436Z,25.83
2018-04-06T08:33:54.457Z,23.76
2018-04-06T08:36:22.730Z,25.28
2018-04-06T08:38:50.996Z,26.66
2018-04-06T08:41:19.261Z,24.19
2018-04-06T08:43:48.290Z,26.99
2018-04-06T08:46:16.549Z,30.26
2018-04-06T08:48:46.829Z,31.70
2018-04-06T08:51:15.087Z,32.91
2018-04-06T08:53:43.357Z,28.33
2018-04-06T08:56:11.600Z,26.46
2018-04-06T08:58:40.629Z,21.58
2018-04-06T09:01:08.900Z,19.41
2018-04-06T09:03:38.152Z,20.92
2018-04-06T09:06:06.388Z,27.87
2018-04-06T09:08:34.692Z,21.88
2018-04-06T09:11:03.677Z,23.51
2018-04-06T09:13:31.944Z,24.33
2018-04-06T09:16:00.210Z,20.79
2018-04-06T09:18:29.235Z,22.50
2018-04-06T09:20:57.493Z,22.14
2018-04-06T09:23:26.505Z,23.24
2018-04-06T09:25:54.765Z,25.27
2018-04-06T09:28:23.790Z,26.25
2018-04-06T09:30:52.052Z,25.14
2018-04-06T09:33:21.394Z,25.04
2018-04-06T09:35:49.655Z,26.55
2018-04-06T09:38:17.909Z,23.06
2018-04-06T09:40:46.946Z,26.47
2018-04-06T09:43:15.220Z,26.02
2018-04-06T09:45:43.481Z,22.39
2018-04-06T09:48:12.496Z,22.66
2018-04-06T09:50:40.757Z,20.07
2018-04-06T09:53:09.765Z,23.10
2018-04-06T09:55:38.032Z,29.53
2018-04-06T09:58:06.285Z,26.87
2018-04-06T10:00:34.544Z,31.07
2018-04-06T10:03:02.796Z,31.19
2018-04-06T10:05:31.065Z,32.76
2018-04-06T10:07:59.309Z,31.20
2018-04-06T10:10:27.566Z,26.74
2018-04-06T10:12:55.812Z,26.21
2018-04-06T10:15:24.344Z,24.95
2018-04-06T10:17:52.872Z,19.66
2018-04-06T10:20:21.132Z,19.00
2018-04-06T10:22:49.956Z,22.87
2018-04-06T10:25:18.222Z,25.74
2018-04-06T10:27:46.509Z,25.94
2018-04-06T10:30:14.756Z,25.13
2018-04-06T10:32:43.026Z,28.76
2018-04-06T10:35:11.272Z,28.19
2018-04-06T10:37:39.525Z,29.36
2018-04-06T10:40:07.777Z,24.28
2018-04-06T10:42:36.041Z,24.18
2018-04-06T10:45:04.292Z,20.96
2018-04-06T10:47:32.556Z,28.01
2018-04-06T10:50:00.805Z,24.10
2018-04-06T10:52:29.081Z,24.77
2018-04-06T10:54:57.341Z,21.92
2018-04-06T10:57:25.612Z,22.39
2018-04-06T10:59:53.864Z,21.28
2018-04-06T11:02:22.109Z,25.69
2018-04-06T11:04:52.378Z,27.71
2018-04-06T11:07:20.620Z,25.07
2018-04-06T11:09:49.649Z,23.46
2018-04-06T11:12:17.909Z,29.23
2018-04-06T11:14:46.179Z,23.89
2018-04-06T11:17:15.161Z,25.10
2018-04-06T11:19:43.429Z,24.42
2018-04-06T11:22:11.683Z,22.71
2018-04-06T11:24:39.944Z,25.53
2018-04-06T11:27:08.409Z,26.27
2018-04-06T11:29:37.429Z,28.65
2018-04-06T11:32:05.693Z,28.71
2018-04-06T11:34:34.708Z,24.41
2018-04-06T11:37:02.964Z,27.97
2018-04-06T11:39:31.992Z,29.16
2018-04-06T11:42:00.239Z,28.81
2018-04-06T11:44:29.269Z,23.34
2018-04-06T11:46:57.524Z,23.77
2018-04-06T11:49:26.548Z,22.98
2018-04-06T11:51:54.805Z,26.01
2018-04-06T11:54:23.069Z,29.94
2018-04-06T11:56:52.095Z,30.51
2018-04-06T11:59:20.669Z,33.26
2018-04-06T12:01:48.930Z,36.55
2018-04-06T12:04:17.947Z,35.81
2018-04-06T12:06:46.347Z,33.18
2018-04-06T12:09:14.611Z,34.26
2018-04-06T12:11:43.634Z,34.48
2018-04-06T12:14:11.887Z,27.08
2018-04-06T12:16:40.140Z,25.19
2018-04-06T12:19:08.388Z,25.24
2018-04-06T12:21:36.647Z,23.77
2018-04-06T12:24:04.897Z,29.25
2018-04-06T12:26:33.933Z,33.85
2018-04-06T12:29:02.203Z,34.77
2018-04-06T12:31:30.459Z,37.72
2018-04-06T12:33:59.479Z,36.34
2018-04-06T12:36:27.740Z,36.92
2018-04-06T12:38:56.761Z,36.87
2018-04-06T12:41:25.857Z,34.77
2018-04-06T12:43:54.103Z,33.28
2018-04-06T12:46:23.126Z,28.74
2018-04-06T12:48:51.389Z,27.21
2018-04-06T12:51:20.424Z,28.91
2018-04-06T12:53:48.695Z,27.16
2018-04-06T12:56:16.944Z,25.27
2018-04-06T12:58:45.975Z,25.85
2018-04-06T13:01:14.224Z,24.89
2018-04-06T13:03:43.256Z,23.24
2018-04-06T13:06:11.508Z,25.86
2018-04-06T13:08:40.536Z,29.38
2018-04-06T13:11:08.789Z,31.29
2018-04-06T13:13:37.053Z,34.64
2018-04-06T13:16:06.073Z,37.52
2018-04-06T13:18:34.336Z,36.46
2018-04-06T13:21:02.577Z,36.37
2018-04-06T13:23:30.886Z,37.00
2018-04-06T13:25:59.133Z,36.54
2018-04-06T13:28:27.392Z,34.57
2018-04-06T13:30:55.662Z,35.27
2018-04-06T13:33:23.927Z,35.99
2018-04-06T13:35:52.937Z,36.51
2018-04-06T13:38:21.202Z,35.70
2018-04-06T13:40:50.234Z,35.09
2018-04-06T13:43:18.505Z,34.54
2018-04-06T13:45:46.754Z,34.64
2018-04-06T13:48:15.784Z,35.88
2018-04-06T13:50:44.040Z,36.14
2018-04-06T13:53:13.060Z,36.75
2018-04-06T13:55:42.264Z,35.91
2018-04-06T13:58:10.512Z,35.65
2018-04-06T14:00:39.540Z,37.09
2018-04-06T14:03:07.789Z,37.68
2018-04-06T14:05:36.818Z,39.03
2018-04-06T14:08:05.134Z,38.10
2018-04-06T14:10:33.357Z,36.34
2018-04-06T14:13:01.613Z,35.41
2018-04-06T14:15:29.873Z,36.42
2018-04-06T14:17:58.128Z,37.48
2018-04-06T14:20:26.400Z,38.09
2018-04-06T14:22:54.657Z,37.80
2018-04-06T14:25:22.933Z,38.85
2018-04-06T14:27:51.955Z,37.03
2018-04-06T14:30:20.208Z,37.99
2018-04-06T14:32:49.224Z,38.31
2018-04-06T14:35:17.494Z,38.43
2018-04-06T14:37:46.513Z,38.76
2018-04-06T14:40:14.777Z,37.69
2018-04-06T14:42:43.028Z,39.71
2018-04-06T14:45:11.292Z,38.09
2018-04-06T14:47:39.548Z,39.25
2018-04-06T14:50:07.800Z,39.03
2018-04-06T14:52:36.063Z,39.08
2018-04-06T14:55:05.076Z,37.19
2018-04-06T14:57:33.348Z,38.63
2018-04-06T15:00:02.374Z,38.13
2018-04-06T15:02:30.641Z,39.03
2018-04-06T15:04:58.894Z,39.62
2018-04-06T15:07:27.949Z,38.61
2018-04-06T15:09:56.189Z,39.61
2018-04-06T15:12:24.458Z,38.62
2018-04-06T15:14:53.469Z,38.17
2018-04-06T15:17:21.738Z,37.79
2018-04-06T15:19:50.758Z,38.46
2018-04-06T15:22:19.020Z,39.08
2018-04-06T15:24:48.051Z,38.32
2018-04-06T15:27:16.321Z,39.84
2018-04-06T15:29:44.602Z,40.87
2018-04-06T15:32:12.860Z,40.58
2018-04-06T15:34:41.876Z,40.54
2018-04-06T15:37:10.133Z,41.42
2018-04-06T15:39:39.151Z,41.99
2018-04-06T15:42:07.416Z,41.28
2018-04-06T15:44:36.437Z,41.57
2018-04-06T15:47:04.711Z,40.92
2018-04-06T15:49:33.002Z,40.59
2018-04-06T15:52:01.989Z,39.70
2018-04-06T15:54:30.252Z,39.38
2018-04-06T15:56:59.270Z,40.17
2018-04-06T15:59:27.521Z,40.83
2018-04-06T16:01:56.541Z,40.24
2018-04-06T16:04:24.810Z,40.94
2018-04-06T16:06:53.839Z,40.32
2018-04-06T16:09:22.104Z,40.55
2018-04-06T16:11:50.392Z,40.58
2018-04-06T16:14:18.655Z,41.18
2018-04-06T16:16:46.904Z,41.64
2018-04-06T16:19:15.169Z,41.57
2018-04-06T16:21:43.640Z,41.84
2018-04-06T16:24:12.303Z,43.05
2018-04-06T16:26:40.556Z,43.07
2018-04-06T16:29:09.583Z,44.36
2018-04-06T16:31:37.836Z,44.68
2018-04-06T16:34:06.856Z,44.20
2018-04-06T16:36:35.111Z,43.67
2018-04-06T16:39:06.053Z,44.35
2018-04-06T16:41:35.063Z,43.78
2018-04-06T16:44:03.328Z,45.07
2018-04-06T16:46:32.364Z,44.71
2018-04-06T16:49:00.611Z,45.08
2018-04-06T16:51:29.641Z,45.74
2018-04-06T16:53:57.893Z,46.39
2018-04-06T16:56:26.936Z,45.64
2018-04-06T16:58:55.184Z,47.90
2018-04-06T17:01:23.453Z,48.16
2018-04-06T17:03:51.725Z,48.79
2018-04-06T17:06:20.733Z,48.87
2018-04-06T17:08:48.996Z,49.30
2018-04-06T17:11:18.036Z,49.16
2018-04-06T17:13:46.279Z,50.53
2018-04-06T17:16:16.428Z,50.88
2018-04-06T17:18:44.684Z,51.16
2018-04-06T17:21:13.721Z,50.98
2018-04-06T17:23:41.968Z,52.39
2018-04-06T17:26:11.011Z,52.17
2018-04-06T17:28:39.260Z,52.43
2018-04-06T17:31:07.520Z,53.37
2018-04-06T17:33:36.550Z,54.40
2018-04-06T17:36:04.800Z,54.98
2018-04-06T17:38:33.812Z,55.24
2018-04-06T17:41:02.085Z,55.37
2018-04-06T17:43:30.556Z,56.00
2018-04-06T17:45:58.851Z,55.88
2018-04-06T17:48:27.218Z,56.48
2018-04-06T17:50:56.266Z,57.06
2018-04-06T17:53:24.535Z,58.08
2018-04-06T17:55:52.777Z,59.20
2018-04-06T17:58:21.820Z,60.09
2018-04-06T18:00:50.168Z,60.03
2018-04-06T18:03:19.191Z,59.85
2018-04-06T18:05:47.441Z,59.86
2018-04-06T18:08:16.469Z,60.57
2018-04-06T18:10:44.713Z,60.98
2018-04-06T18:13:13.736Z,62.12
2018-04-06T18:15:41.976Z,62.85
2018-04-06T18:18:10.244Z,62.76
2018-04-06T18:20:39.109Z,62.05
2018-04-06T18:23:07.405Z,63.11
2018-04-06T18:25:35.653Z,62.87
2018-04-06T18:28:03.901Z,62.57
2018-04-06T18:30:32.938Z,62.59
2018-04-06T18:33:01.197Z,63.12
2018-04-06T18:35:30.213Z,63.06
2018-04-06T18:37:58.470Z,63.25
2018-04-06T18:40:27.490Z,63.36
2018-04-06T18:42:55.736Z,63.33
2018-04-06T18:45:24.768Z,63.47
2018-04-06T18:47:53.009Z,64.79
2018-04-06T18:50:21.272Z,65.65
2018-04-06T18:52:50.520Z,66.24
2018-04-06T18:55:18.780Z,66.61
2018-04-06T18:57:47.794Z,67.62
2018-04-06T19:00:16.808Z,67.93
2018-04-06T19:02:45.057Z,67.62
2018-04-06T19:05:14.078Z,68.32
2018-04-06T19:07:42.320Z,67.79
2018-04-06T19:10:10.579Z,68.06
2018-04-06T19:12:38.818Z,69.10
2018-04-06T19:15:07.085Z,68.83
2018-04-06T19:17:36.109Z,68.94
2018-04-06T19:20:04.364Z,69.56
2018-04-06T19:22:33.401Z,69.57
2018-04-06T19:25:02.583Z,70.14
2018-04-06T19:27:30.825Z,70.57
2018-04-06T19:29:59.068Z,70.36
2018-04-06T19:32:27.328Z,70.88
2018-04-06T19:34:55.582Z,71.39
2018-04-06T19:37:24.604Z,71.10
2018-04-06T19:39:52.862Z,71.32
2018-04-06T19:42:21.910Z,71.17
2018-04-06T19:44:50.127Z,71.81
2018-04-06T19:47:19.148Z,71.70
2018-04-06T19:49:47.397Z,71.85
2018-04-06T19:52:16.428Z,72.13
2018-04-06T19:54:44.690Z,72.15
2018-04-06T19:57:13.688Z,72.43
2018-04-06T19:59:42.717Z,73.07
2018-04-06T20:02:10.969Z,73.36
2018-04-06T20:04:39.977Z,73.05
2018-04-06T20:07:08.245Z,73.03
2018-04-06T20:09:37.264Z,73.60
2018-04-06T20:12:05.533Z,73.71
2018-04-06T20:14:33.780Z,73.48
2018-04-06T20:17:02.048Z,74.01
2018-04-06T20:19:30.293Z,74.53
2018-04-06T20:21:58.597Z,74.45
2018-04-06T20:24:26.815Z,74.77
2018-04-06T20:26:55.833Z,75.09
2018-04-06T20:29:24.087Z,74.23
2018-04-06T20:31:52.337Z,76.15
2018-04-06T20:34:20.593Z,76.13
2018-04-06T20:36:48.858Z,77.08
2018-04-06T20:39:17.120Z,77.80
2018-04-06T20:41:46.124Z,76.28
2018-04-06T20:44:14.385Z,77.19
2018-04-06T20:46:42.632Z,77.31
2018-04-06T20:49:10.886Z,78.41
2018-04-06T20:51:39.130Z,78.31
2018-04-06T20:54:07.386Z,78.81
2018-04-06T20:56:35.645Z,78.95
2018-04-06T20:59:03.904Z,78.79
2018-04-06T21:01:32.152Z,79.32
2018-04-06T21:04:01.174Z,79.97
2018-04-06T21:06:29.422Z,80.33
2018-04-06T21:08:57.668Z,80.96
2018-04-06T21:11:25.913Z,80.88
2018-04-06T21:13:54.171Z,80.57
2018-04-06T21:16:23.193Z,81.15
2018-04-06T21:18:51.438Z,81.54
2018-04-06T21:21:19.689Z,81.35
2018-04-06T21:23:47.940Z,81.40
2018-04-06T21:26:16.197Z,81.41
2018-04-06T21:28:45.221Z,82.24
2018-04-06T21:31:13.469Z,82.40
2018-04-06T21:33:42.483Z,82.82
2018-04-06T21:36:10.748Z,82.89
2018-04-06T21:38:39.752Z,83.79
2018-04-06T21:41:08.785Z,83.47
2018-04-06T21:43:37.030Z,83.59
2018-04-06T21:46:06.063Z,83.88
2018-04-06T21:48:34.308Z,84.15
2018-04-06T21:51:03.332Z,84.03
2018-04-06T21:53:31.624Z,84.29
2018-04-06T21:56:00.597Z,83.71
2018-04-06T21:58:28.841Z,84.13
2018-04-06T22:00:57.097Z,84.28
2018-04-06T22:03:25.352Z,84.33
2018-04-06T22:05:53.618Z,83.75
2018-04-06T22:08:21.872Z,84.34
2018-04-06T22:10:50.894Z,83.99
2018-04-06T22:13:19.165Z,84.28
2018-04-06T22:15:48.183Z,84.35
2018-04-06T22:18:16.440Z,84.07
2018-04-06T22:20:45.464Z,84.86
2018-04-06T22:23:13.717Z,85.23
2018-04-06T22:25:42.740Z,84.73
2018-04-06T22:28:10.998Z,85.30
2018-04-06T22:30:40.021Z,85.29
2018-04-06T22:33:08.294Z,85.81
2018-04-06T22:35:36.532Z,85.57
2018-04-06T22:38:04.792Z,86.13
2018-04-06T22:40:33.036Z,85.36
2018-04-06T22:43:01.294Z,86.03
2018-04-06T22:45:30.315Z,85.31
2018-04-06T22:47:58.578Z,85.57
2018-04-06T22:50:27.593Z,85.68
2018-04-06T22:52:55.852Z,86.00
2018-04-06T22:55:24.117Z,86.33
2018-04-06T22:57:53.140Z,86.41
2018-04-06T23:00:22.108Z,86.45
2018-04-06T23:02:51.184Z,86.37
2018-04-06T23:05:20.949Z,85.87
2018-04-06T23:07:49.968Z,85.00
2018-04-06T23:10:18.208Z,85.85
2018-04-06T23:12:47.226Z,85.05
2018-04-06T23:15:15.492Z,86.53
2018-04-06T23:17:44.516Z,86.57
2018-04-06T23:20:12.771Z,87.02
2018-04-06T23:22:41.905Z,87.50
2018-04-06T23:25:10.257Z,86.34
2018-04-06T23:27:39.274Z,86.06
2018-04-06T23:30:07.537Z,86.19
2018-04-06T23:32:35.793Z,86.99
2018-04-06T23:35:04.044Z,87.54
2018-04-06T23:37:32.309Z,87.76
2018-04-06T23:40:00.552Z,87.73
2018-04-06T23:42:29.580Z,87.67
2018-04-06T23:44:57.838Z,87.55
2018-04-06T23:47:26.089Z,88.04
2018-04-06T23:49:54.355Z,88.21
2018-04-06T23:52:22.601Z,88.15
2018-04-06T23:54:50.869Z,88.65
2018-04-06T23:57:19.131Z,88.17
2018-04-06T23:59:48.372Z,88.66
